Terminal Aerodrome Forecast
Issued by NWS

Home | Current Version | Previous Version | Text Only | Print | Product List | Glossary On
Versions: 1 2 3 4 5 6 7 8 9 10 11 12 13 14 15 16 17 18 19 20 21 22 23
000
FTAK31 PAFA 291120
TAFAOR
TAF
PAOR 291120Z 2912/3012 07003KT P6SM VCFG BKN100 BKN150
     FM291400 VRB03KT 6SM BR FEW005 SCT050 OVC100
     FM291800 VRB03KT P6SM SCT050 OVC100
     FM300300 30004KT P6SM VCSH BKN050 OVC100
     FM300600 32010KT P6SM -SHRA BKN035 OVC050=

USA.gov is the U.S. government's official web portal to all federal, state and local government web resources and services.